Time;durP1;ratioP1;P1;durP2;ratioP2;P2;SDS_P1;SDS_P2;PMS_P1;PMS_P2;Temp;Humidity;BMP_temperature;BMP_pressure;BME280_temperature;BME280_humidity;BME280_pressure;Samples;Min_cycle;Max_cycle;Signal;HPM_P1;HPM_P2
2022/01/11 00:01:08;;;;;;;8.45;4.00;;;-6.90;99.90;;;;;;4936723;29;21069;-87
2022/01/11 00:03:37;;;;;;;8.35;4.47;;;-6.90;99.90;;;;;;4954424;29;20740;-86
2022/01/11 00:06:20;;;;;;;8.38;4.40;;;-6.90;99.90;;;;;;4970687;28;20396;-86
2022/01/11 00:08:50;;;;;;;9.70;4.45;;;-6.90;99.90;;;;;;4955638;29;20488;-87
2022/01/11 00:11:17;;;;;;;9.93;4.82;;;-7.00;99.90;;;;;;4954533;29;20420;-87
2022/01/11 00:13:45;;;;;;;8.00;4.23;;;-6.90;99.90;;;;;;4970563;28;20436;-85
2022/01/11 00:16:13;;;;;;;8.80;4.43;;;-7.10;99.90;;;;;;4954730;29;20459;-86
2022/01/11 00:18:41;;;;;;;9.38;4.20;;;-7.30;99.90;;;;;;4954645;29;20483;-87
2022/01/11 00:21:09;;;;;;;8.10;4.00;;;-7.20;99.90;;;;;;4938450;29;20412;-87
2022/01/11 00:26:05;;;;;;;7.23;4.00;;;-7.40;99.90;;;;;;4970573;28;20799;-88
2022/01/11 00:28:32;;;;;;;7.45;3.72;;;-7.20;99.90;;;;;;4955774;29;20400;-86
2022/01/11 00:31:13;;;;;;;8.38;4.30;;;-7.40;99.90;;;;;;4970473;28;20417;-86
2022/01/11 00:33:45;;;;;;;10.38;4.28;;;-7.50;99.90;;;;;;4969873;28;20520;-86
2022/01/11 00:36:14;;;;;;;9.80;4.63;;;-7.50;99.90;;;;;;4954157;29;20416;-85
2022/01/11 00:38:42;;;;;;;9.57;4.32;;;-7.60;99.90;;;;;;4938279;29;20805;-85
2022/01/11 00:41:12;;;;;;;10.13;4.65;;;-7.60;99.90;;;;;;4970078;28;20435;-85
2022/01/11 00:43:42;;;;;;;7.93;3.88;;;-7.50;99.90;;;;;;4938254;29;20895;-85
2022/01/11 00:46:10;;;;;;;7.95;3.70;;;-7.60;99.90;;;;;;4938043;29;20922;-87
2022/01/11 00:48:40;;;;;;;9.15;4.00;;;-7.80;99.90;;;;;;4954003;29;20400;-85
2022/01/11 00:51:10;;;;;;;9.13;4.45;;;-7.70;99.90;;;;;;4970179;28;20430;-86
2022/01/11 00:53:41;;;;;;;11.98;4.82;;;-7.80;99.90;;;;;;4953920;29;20440;-87
2022/01/11 00:56:09;;;;;;;7.70;3.90;;;-7.90;99.90;;;;;;4970144;28;20437;-87
2022/01/11 00:58:36;;;;;;;8.55;3.78;;;-8.00;99.90;;;;;;4953918;29;20885;-87
2022/01/11 01:01:04;;;;;;;9.10;4.30;;;-8.10;99.90;;;;;;4937858;29;20474;-86
2022/01/11 01:03:32;;;;;;;10.50;4.55;;;-8.00;99.90;;;;;;4969558;28;20404;-86
2022/01/11 01:05:59;;;;;;;9.27;4.63;;;-8.00;99.90;;;;;;4954391;29;20416;-87
2022/01/11 01:08:29;;;;;;;9.65;4.28;;;-8.00;99.90;;;;;;4969691;28;20411;-86
2022/01/11 01:10:56;;;;;;;9.05;4.05;;;-8.10;99.90;;;;;;4953746;28;20396;-86
2022/01/11 01:13:28;;;;;;;7.78;4.22;;;-8.20;99.90;;;;;;4953706;29;20404;-86
2022/01/11 01:16:03;;;;;;;9.15;4.35;;;-8.30;99.90;;;;;;4937387;29;20467;-87
2022/01/11 01:18:47;;;;;;;11.30;4.93;;;-8.30;99.90;;;;;;4953598;29;20407;-86
2022/01/11 01:21:16;;;;;;;10.60;4.47;;;-8.40;99.90;;;;;;4937887;29;20533;-88
2022/01/11 01:23:44;;;;;;;9.90;4.05;;;-8.30;99.90;;;;;;4936662;29;20411;-87
2022/01/11 01:26:12;;;;;;;11.82;4.90;;;-8.30;99.90;;;;;;4937183;29;20782;-87
2022/01/11 01:28:40;;;;;;;8.93;4.32;;;-8.40;99.90;;;;;;4953337;29;20415;-87
2022/01/11 01:31:07;;;;;;;9.98;4.50;;;-8.40;99.90;;;;;;4937061;29;20400;-87
2022/01/11 01:33:35;;;;;;;9.45;4.75;;;-8.50;99.90;;;;;;4937258;29;20411;-87
2022/01/11 01:36:07;;;;;;;9.73;4.68;;;-8.50;99.90;;;;;;4937305;29;20400;-86
2022/01/11 01:38:34;;;;;;;10.07;4.43;;;-8.50;99.90;;;;;;4953130;29;20407;-87
2022/01/11 01:41:11;;;;;;;9.13;4.00;;;-8.70;99.90;;;;;;4937298;29;20412;-86
2022/01/11 01:43:39;;;;;;;9.07;4.72;;;-8.70;99.90;;;;;;4969185;28;20420;-85
2022/01/11 01:46:07;;;;;;;9.67;4.57;;;-8.80;99.90;;;;;;4969025;28;20402;-87
2022/01/11 01:48:38;;;;;;;9.38;4.45;;;-8.90;99.90;;;;;;4953049;29;20412;-87
2022/01/11 01:51:08;;;;;;;9.10;4.47;;;-8.80;99.90;;;;;;4953317;29;20403;-87
2022/01/11 01:53:41;;;;;;;8.15;4.00;;;-8.70;99.90;;;;;;4953099;29;20771;-87
2022/01/11 01:56:08;;;;;;;9.32;4.05;;;-8.90;99.90;;;;;;4952892;29;20404;-86
2022/01/11 01:58:37;;;;;;;8.80;4.25;;;-9.00;99.90;;;;;;4936682;29;20408;-86
2022/01/11 02:01:06;;;;;;;9.48;4.57;;;-8.90;99.90;;;;;;4936865;29;20396;-85
2022/01/11 02:03:39;;;;;;;9.57;4.43;;;-8.90;99.90;;;;;;4936634;29;20495;-87
2022/01/11 02:06:18;;;;;;;10.45;4.93;;;-8.90;99.90;;;;;;4952815;29;20463;-87
2022/01/11 02:08:49;;;;;;;9.73;4.60;;;-8.90;99.90;;;;;;4968860;28;20451;-87
2022/01/11 02:11:19;;;;;;;9.87;4.90;;;-8.90;99.90;;;;;;4937039;29;20491;-87
2022/01/11 02:13:48;;;;;;;11.95;5.03;;;-8.80;99.90;;;;;;4936915;29;20451;-87
2022/01/11 02:16:21;;;;;;;8.90;4.20;;;-8.90;99.90;;;;;;4952889;29;20399;-88
2022/01/11 02:18:52;;;;;;;10.50;4.93;;;-8.80;99.90;;;;;;4936839;29;20459;-88
2022/01/11 02:21:21;;;;;;;10.02;4.68;;;-9.00;99.90;;;;;;4936671;29;20812;-87
2022/01/11 02:23:50;;;;;;;9.68;4.93;;;-9.00;99.90;;;;;;4936605;29;20400;-86
2022/01/11 02:26:22;;;;;;;11.02;4.47;;;-8.90;99.90;;;;;;4968734;28;20400;-86
2022/01/11 02:28:51;;;;;;;9.48;4.45;;;-9.10;99.90;;;;;;4952660;28;20400;-86
2022/01/11 02:31:19;;;;;;;11.90;4.83;;;-9.20;99.90;;;;;;4952567;29;20486;-86
2022/01/11 02:33:56;;;;;;;10.45;4.55;;;-9.20;99.90;;;;;;4952445;29;20568;-86
2022/01/11 02:36:37;;;;;;;9.95;4.32;;;-9.20;99.90;;;;;;4952676;29;20388;-88
2022/01/11 02:39:24;;;;;;;7.77;4.20;;;-9.20;99.90;;;;;;4952451;29;21077;-86
2022/01/11 02:42:01;;;;;;;8.82;4.43;;;-9.20;99.90;;;;;;4936647;29;20454;-87
2022/01/11 02:44:34;;;;;;;11.13;4.47;;;-9.20;99.90;;;;;;4970975;28;20404;-87
2022/01/11 02:47:03;;;;;;;9.32;4.45;;;-9.20;99.90;;;;;;4956397;29;20965;-87
2022/01/11 02:49:34;;;;;;;8.95;4.22;;;-9.30;99.90;;;;;;4956279;29;20460;-88
2022/01/11 02:52:08;;;;;;;9.77;4.43;;;-9.30;99.90;;;;;;4956302;29;20420;-87
2022/01/11 02:54:38;;;;;;;9.02;4.50;;;-9.40;99.90;;;;;;4972225;28;20913;-88
2022/01/11 02:57:11;;;;;;;10.65;4.85;;;-9.40;99.90;;;;;;4956338;29;20886;-87
2022/01/11 02:59:39;;;;;;;9.38;4.40;;;-9.30;99.90;;;;;;4940212;29;20396;-88
2022/01/11 03:02:06;;;;;;;10.20;4.82;;;-9.40;99.90;;;;;;4940302;29;20775;-86
2022/01/11 03:04:36;;;;;;;9.20;4.30;;;-9.30;99.90;;;;;;4955848;29;20443;-88
2022/01/11 03:07:04;;;;;;;11.20;4.72;;;-9.30;99.90;;;;;;4956072;29;20441;-88
2022/01/11 03:09:52;;;;;;;9.88;4.72;;;-9.30;99.90;;;;;;4940021;29;20404;-88
2022/01/11 03:12:23;;;;;;;10.82;5.15;;;-9.40;99.90;;;;;;4955936;29;20408;-87
2022/01/11 03:14:51;;;;;;;9.87;4.93;;;-9.50;99.90;;;;;;4955887;29;20798;-86
2022/01/11 03:17:19;;;;;;;11.77;4.30;;;-9.40;99.90;;;;;;4955841;29;20405;-87
2022/01/11 03:19:47;;;;;;;8.98;4.53;;;-9.50;99.90;;;;;;4939878;29;20432;-88
2022/01/11 03:22:15;;;;;;;9.80;4.78;;;-9.50;99.90;;;;;;4971858;28;20901;-89
2022/01/11 03:24:44;;;;;;;10.97;4.77;;;-9.40;99.90;;;;;;4972101;28;20453;-86
2022/01/11 03:27:12;;;;;;;9.25;4.28;;;-9.50;99.90;;;;;;4955618;29;20403;-86
2022/01/11 03:29:40;;;;;;;7.70;4.03;;;-9.60;99.90;;;;;;4939515;29;20419;-85
2022/01/11 03:32:09;;;;;;;11.40;5.13;;;-9.60;99.90;;;;;;4939413;29;20446;-87
2022/01/11 03:34:56;;;;;;;8.57;4.32;;;-9.70;99.90;;;;;;4958313;28;20455;-88
2022/01/11 03:37:24;;;;;;;9.43;4.50;;;-9.60;99.90;;;;;;4955563;29;20437;-88
2022/01/11 03:39:52;;;;;;;10.57;4.90;;;-9.60;99.90;;;;;;4955371;29;20400;-86
2022/01/11 03:42:20;;;;;;;10.15;4.40;;;-9.70;99.90;;;;;;4955350;29;20902;-87
2022/01/11 03:44:50;;;;;;;10.27;4.93;;;-9.60;99.90;;;;;;4939659;29;21023;-87
2022/01/11 03:47:18;;;;;;;9.50;5.03;;;-9.70;99.90;;;;;;4955507;28;20407;-88
2022/01/11 03:49:46;;;;;;;12.05;5.60;;;-9.70;99.90;;;;;;4955215;29;20404;-85
2022/01/11 03:52:13;;;;;;;8.77;4.80;;;-9.70;99.90;;;;;;4955283;28;20937;-85
2022/01/11 03:55:02;;;;;;;11.35;4.90;;;-9.70;99.90;;;;;;4970699;28;20748;-86
2022/01/11 03:57:36;;;;;;;10.48;5.05;;;-9.80;99.90;;;;;;4954969;29;20404;-85
2022/01/11 04:00:16;;;;;;;10.75;5.20;;;-9.80;99.90;;;;;;4938854;29;20400;-87
2022/01/11 04:02:46;;;;;;;10.30;5.05;;;-9.80;99.90;;;;;;4955163;29;20408;-88
2022/01/11 04:05:18;;;;;;;12.32;5.32;;;-9.80;99.90;;;;;;4938764;29;20887;-88
2022/01/11 04:07:45;;;;;;;12.18;5.28;;;-10.00;99.90;;;;;;4939000;29;20922;-85
2022/01/11 04:10:13;;;;;;;11.18;4.82;;;-9.90;99.90;;;;;;4970830;28;20416;-85
2022/01/11 04:12:41;;;;;;;11.52;5.55;;;-9.90;99.90;;;;;;4938466;29;20412;-87
2022/01/11 04:15:09;;;;;;;11.88;4.85;;;-9.90;99.90;;;;;;4954760;29;20396;-87
2022/01/11 04:17:37;;;;;;;11.82;5.40;;;-10.00;99.90;;;;;;4938785;29;20444;-87
2022/01/11 04:20:05;;;;;;;10.70;5.60;;;-10.10;99.90;;;;;;4938801;29;20407;-86
2022/01/11 04:22:33;;;;;;;10.75;5.38;;;-10.20;99.90;;;;;;4938851;29;20472;-87
2022/01/11 04:25:01;;;;;;;11.45;5.85;;;-10.20;99.90;;;;;;4954901;29;20878;-87
2022/01/11 04:27:29;;;;;;;12.80;5.60;;;-10.20;99.90;;;;;;4938644;29;20412;-86
2022/01/11 04:29:58;;;;;;;12.07;5.70;;;-10.40;99.90;;;;;;4938529;29;20763;-86
2022/01/11 04:32:27;;;;;;;11.43;5.30;;;-10.40;99.90;;;;;;4938481;29;20439;-85
2022/01/11 04:34:55;;;;;;;12.93;5.40;;;-10.30;99.90;;;;;;4938593;29;20500;-86
2022/01/11 04:37:23;;;;;;;11.93;5.53;;;-10.40;99.90;;;;;;4938478;29;20491;-87
2022/01/11 04:39:50;;;;;;;14.65;5.70;;;-10.30;99.90;;;;;;4954332;29;20455;-84
2022/01/11 04:42:18;;;;;;;11.32;5.30;;;-10.30;99.90;;;;;;4970405;28;20396;-87
2022/01/11 04:44:46;;;;;;;13.17;5.80;;;-10.30;99.90;;;;;;4938515;29;20412;-86
2022/01/11 04:47:14;;;;;;;13.47;5.77;;;-10.30;99.90;;;;;;4938442;29;20707;-87
2022/01/11 04:49:42;;;;;;;10.38;5.65;;;-10.30;99.90;;;;;;4970486;28;20404;-86
2022/01/11 04:52:10;;;;;;;11.15;5.25;;;-10.30;99.90;;;;;;4954365;29;20392;-87
2022/01/11 04:54:40;;;;;;;11.93;5.45;;;-10.30;99.90;;;;;;4955278;29;20474;-86
2022/01/11 04:57:08;;;;;;;11.30;5.25;;;-10.20;99.90;;;;;;4969878;28;20400;-84
2022/01/11 04:59:36;;;;;;;14.80;5.85;;;-10.40;99.90;;;;;;4970187;28;20422;-85
2022/01/11 05:02:04;;;;;;;10.90;5.20;;;-10.40;99.90;;;;;;4953952;29;20405;-85
2022/01/11 05:04:32;;;;;;;12.27;5.67;;;-10.40;99.90;;;;;;4950117;29;20493;-87
2022/01/11 05:06:59;;;;;;;11.07;5.32;;;-10.40;99.90;;;;;;4934033;29;20398;-87
2022/01/11 05:09:27;;;;;;;13.00;5.38;;;-10.40;99.90;;;;;;4934692;29;20408;-87
2022/01/11 05:11:55;;;;;;;11.85;5.40;;;-10.50;99.90;;;;;;4934621;29;20809;-86
2022/01/11 05:14:23;;;;;;;12.48;5.82;;;-10.50;99.90;;;;;;4934794;29;20410;-86
2022/01/11 05:16:55;;;;;;;12.48;5.53;;;-10.50;99.90;;;;;;4934694;29;20421;-86
2022/01/11 05:19:24;;;;;;;11.20;5.70;;;-10.60;99.90;;;;;;4934580;29;20434;-88
2022/01/11 05:21:51;;;;;;;10.48;5.20;;;-10.60;99.90;;;;;;4918769;29;20394;-87
2022/01/11 05:24:19;;;;;;;11.55;5.50;;;-10.50;99.90;;;;;;4934865;29;20509;-87
2022/01/11 05:26:51;;;;;;;13.95;6.30;;;-10.50;99.90;;;;;;4919256;29;20402;-86
2022/01/11 05:29:19;;;;;;;11.93;5.70;;;-10.60;99.90;;;;;;4934310;29;20412;-87
2022/01/11 05:31:46;;;;;;;12.98;6.05;;;-10.60;99.90;;;;;;4934397;29;20414;-86
2022/01/11 05:34:14;;;;;;;14.43;6.05;;;-10.60;99.90;;;;;;4934460;29;20549;-88
2022/01/11 05:36:42;;;;;;;12.40;5.72;;;-10.60;99.90;;;;;;4950421;29;20398;-87
2022/01/11 05:39:10;;;;;;;13.45;6.20;;;-10.70;99.90;;;;;;4950363;29;20434;-87
2022/01/11 05:41:37;;;;;;;11.90;6.13;;;-10.60;99.90;;;;;;4922911;29;20403;-87
2022/01/11 05:44:05;;;;;;;15.13;6.40;;;-10.70;99.90;;;;;;4916735;29;20422;-87
2022/01/11 05:46:33;;;;;;;13.30;5.90;;;-10.70;99.90;;;;;;4934146;29;20398;-86
2022/01/11 05:49:01;;;;;;;11.40;6.25;;;-10.80;99.90;;;;;;4950211;29;20525;-88
2022/01/11 05:51:29;;;;;;;14.32;6.00;;;-10.90;99.90;;;;;;4934193;29;20444;-88
2022/01/11 05:53:56;;;;;;;12.37;6.33;;;-10.90;99.90;;;;;;4933957;29;20416;-87
2022/01/11 05:56:24;;;;;;;12.68;5.70;;;-10.90;99.90;;;;;;4934159;29;20429;-87
2022/01/11 05:58:52;;;;;;;13.43;6.35;;;-11.10;99.90;;;;;;4950004;29;20398;-87
2022/01/11 06:01:20;;;;;;;13.03;6.10;;;-11.00;99.90;;;;;;4950047;29;20402;-88
2022/01/11 06:03:48;;;;;;;13.70;6.40;;;-11.00;99.90;;;;;;4951118;28;20413;-88
2022/01/11 06:06:15;;;;;;;13.05;5.78;;;-11.10;99.90;;;;;;4944958;29;20418;-89
2022/01/11 06:08:44;;;;;;;17.63;8.23;;;-11.00;99.90;;;;;;4933867;29;20418;-87
2022/01/11 06:11:12;;;;;;;14.30;6.47;;;-11.00;99.90;;;;;;4965698;28;20777;-87
2022/01/11 06:13:42;;;;;;;15.90;6.40;;;-10.90;99.90;;;;;;4965694;28;20947;-87
2022/01/11 06:16:10;;;;;;;12.73;5.78;;;-10.90;99.90;;;;;;4965371;28;20401;-87
2022/01/11 06:18:38;;;;;;;14.35;6.97;;;-11.10;99.90;;;;;;4933106;29;20394;-84
2022/01/11 06:21:31;;;;;;;13.63;6.00;;;-11.10;99.90;;;;;;4943338;28;20516;-87
2022/01/11 06:24:00;;;;;;;13.80;6.05;;;-11.10;99.90;;;;;;4932980;29;20456;-85
2022/01/11 06:26:29;;;;;;;15.10;6.67;;;-11.10;99.90;;;;;;4936297;29;21307;-86
2022/01/11 06:28:57;;;;;;;13.68;6.50;;;-11.40;99.90;;;;;;4943300;29;20482;-87
2022/01/11 06:31:25;;;;;;;12.60;6.00;;;-11.30;99.90;;;;;;4934532;29;20501;-85
2022/01/11 06:33:52;;;;;;;12.38;5.70;;;-11.20;99.90;;;;;;4921986;29;20420;-89
2022/01/11 06:36:21;;;;;;;12.05;5.93;;;-11.30;99.90;;;;;;4899044;29;20456;-85
2022/01/11 06:38:48;;;;;;;13.68;6.15;;;-11.20;99.90;;;;;;4914605;29;20483;-87
2022/01/11 06:41:22;;;;;;;13.30;6.25;;;-11.20;99.90;;;;;;4902538;29;20440;-87
2022/01/11 06:43:52;;;;;;;14.13;6.57;;;-11.20;99.90;;;;;;4933324;29;20398;-85
2022/01/11 06:46:22;;;;;;;12.80;6.35;;;-11.20;99.90;;;;;;4931958;29;20408;-86
2022/01/11 06:48:52;;;;;;;12.40;5.82;;;-11.20;99.90;;;;;;4946338;29;20403;-87
2022/01/11 06:51:20;;;;;;;12.48;6.07;;;-11.40;99.90;;;;;;4917437;29;20415;-87
2022/01/11 06:53:49;;;;;;;13.65;6.40;;;-11.30;99.90;;;;;;4946056;29;20447;-86
2022/01/11 06:56:17;;;;;;;11.90;5.95;;;-11.30;99.90;;;;;;4927570;29;20402;-87
2022/01/11 06:58:49;;;;;;;13.75;6.43;;;-11.20;99.90;;;;;;4926549;29;20420;-86
2022/01/11 07:01:17;;;;;;;15.07;6.43;;;-11.30;99.90;;;;;;4932381;29;20418;-86
2022/01/11 07:03:46;;;;;;;15.65;6.85;;;-11.30;99.90;;;;;;4949010;29;20429;-86
2022/01/11 07:06:25;;;;;;;16.88;8.07;;;-11.40;99.90;;;;;;4933090;29;20429;-85
2022/01/11 07:08:53;;;;;;;20.65;11.27;;;-11.30;99.90;;;;;;4936614;29;20423;-85
2022/01/11 07:11:24;;;;;;;16.33;8.50;;;-11.30;99.90;;;;;;4930176;29;20446;-86
2022/01/11 07:13:54;;;;;;;18.52;8.77;;;-11.40;99.90;;;;;;4945024;29;20465;-84
2022/01/11 07:16:22;;;;;;;17.15;7.70;;;-11.60;99.90;;;;;;4949189;29;20457;-86
2022/01/11 07:18:50;;;;;;;13.67;6.83;;;-11.40;99.90;;;;;;4949080;29;20900;-87
2022/01/11 07:21:18;;;;;;;16.00;7.50;;;-11.60;99.90;;;;;;4948966;29;20393;-87
2022/01/11 07:23:47;;;;;;;14.95;7.50;;;-11.60;99.90;;;;;;4948972;29;20410;-86
2022/01/11 07:26:14;;;;;;;15.27;7.10;;;-11.50;99.90;;;;;;4948928;29;20398;-86
2022/01/11 07:28:43;;;;;;;19.08;7.70;;;-11.50;99.90;;;;;;4932917;29;20406;-86
2022/01/11 07:31:15;;;;;;;18.02;6.97;;;-11.50;99.90;;;;;;4937335;29;20453;-85
2022/01/11 07:33:47;;;;;;;16.00;6.73;;;-11.50;99.90;;;;;;4936139;29;20418;-85
2022/01/11 07:36:15;;;;;;;16.33;7.38;;;-11.60;99.90;;;;;;4958804;28;20776;-86
2022/01/11 07:38:46;;;;;;;17.05;6.95;;;-11.50;99.90;;;;;;4936039;29;20414;-87
2022/01/11 07:41:19;;;;;;;15.85;7.18;;;-11.70;99.90;;;;;;4952105;29;20406;-87
2022/01/11 07:44:11;;;;;;;15.30;7.45;;;-11.70;99.90;;;;;;4943867;29;20465;-85
2022/01/11 07:46:41;;;;;;;16.65;8.10;;;-11.60;99.90;;;;;;4936035;29;20434;-87
2022/01/11 07:49:15;;;;;;;17.45;7.82;;;-11.60;99.90;;;;;;4951316;28;20421;-87
2022/01/11 07:51:42;;;;;;;17.15;8.10;;;-11.70;99.90;;;;;;4936176;29;20477;-87
2022/01/11 07:54:10;;;;;;;19.90;8.00;;;-11.70;99.90;;;;;;4951813;29;20409;-86
2022/01/11 07:56:38;;;;;;;20.52;9.10;;;-11.60;99.90;;;;;;4947502;29;20972;-86
2022/01/11 07:59:07;;;;;;;21.83;9.80;;;-11.50;99.90;;;;;;4935823;29;20406;-86
2022/01/11 08:01:39;;;;;;;20.52;9.07;;;-11.50;99.90;;;;;;4952009;29;20402;-85
2022/01/11 08:04:08;;;;;;;19.48;8.77;;;-11.40;99.90;;;;;;4951477;29;20414;-86
2022/01/11 08:06:47;;;;;;;18.33;9.00;;;-11.50;99.90;;;;;;4951577;29;21007;-86
2022/01/11 08:09:33;;;;;;;21.33;9.30;;;-11.50;99.90;;;;;;4949302;29;20470;-84
2022/01/11 08:12:01;;;;;;;20.60;9.30;;;-11.50;99.90;;;;;;4951460;29;20412;-86
2022/01/11 08:14:29;;;;;;;20.00;8.77;;;-11.40;99.90;;;;;;4935466;29;20429;-85
2022/01/11 08:16:59;;;;;;;18.57;8.50;;;-11.50;99.90;;;;;;4920056;29;20406;-85
2022/01/11 08:19:27;;;;;;;20.73;9.63;;;-11.70;99.90;;;;;;4935552;29;20448;-87
2022/01/11 08:21:58;;;;;;;19.40;9.05;;;-11.60;99.90;;;;;;4935458;29;20809;-85
2022/01/11 08:24:38;;;;;;;21.17;9.05;;;-11.60;99.90;;;;;;4935485;28;20409;-87
2022/01/11 08:27:06;;;;;;;20.63;9.68;;;-11.60;99.90;;;;;;4935610;29;20412;-87
2022/01/11 08:29:35;;;;;;;21.15;9.02;;;-11.50;99.90;;;;;;4951430;29;20581;-86
2022/01/11 08:32:04;;;;;;;22.80;10.20;;;-11.60;99.90;;;;;;4935463;29;20896;-86
2022/01/11 08:34:31;;;;;;;19.92;10.25;;;-11.60;99.90;;;;;;4935388;29;20406;-87
2022/01/11 08:36:59;;;;;;;16.65;7.95;;;-11.50;99.90;;;;;;4951301;29;20469;-86
2022/01/11 08:39:29;;;;;;;22.52;9.98;;;-11.60;99.90;;;;;;4935413;29;20496;-87
2022/01/11 08:41:57;;;;;;;20.20;9.63;;;-11.60;99.90;;;;;;4950136;28;20421;-84
2022/01/11 08:44:26;;;;;;;20.40;9.27;;;-11.70;99.90;;;;;;4951176;29;20432;-89
2022/01/11 08:46:56;;;;;;;22.40;9.73;;;-11.50;99.90;;;;;;4935819;29;20939;-85
2022/01/11 08:49:34;;;;;;;19.40;9.80;;;-11.40;99.90;;;;;;4920722;29;20450;-87
2022/01/11 08:52:03;;;;;;;20.08;9.90;;;-11.40;99.90;;;;;;4951033;29;20425;-87
2022/01/11 08:54:32;;;;;;;18.67;9.45;;;-11.40;99.90;;;;;;4950948;29;20472;-86
2022/01/11 08:57:00;;;;;;;22.17;10.23;;;-11.40;99.90;;;;;;4951180;29;20496;-86
2022/01/11 08:59:28;;;;;;;21.85;10.18;;;-11.30;99.90;;;;;;4950882;29;20527;-87
2022/01/11 09:02:04;;;;;;;18.60;9.13;;;-11.30;99.90;;;;;;4950990;28;20972;-86
2022/01/11 09:04:33;;;;;;;20.08;9.82;;;-11.20;99.90;;;;;;4950735;29;20750;-86
2022/01/11 09:07:06;;;;;;;20.07;9.53;;;-11.40;99.90;;;;;;4934775;29;20410;-87
2022/01/11 09:09:33;;;;;;;23.03;10.60;;;-11.40;99.90;;;;;;4934896;29;20405;-86
2022/01/11 09:12:06;;;;;;;21.27;10.10;;;-11.40;99.90;;;;;;4935481;29;20433;-86
2022/01/11 09:14:37;;;;;;;22.85;10.85;;;-11.40;99.90;;;;;;4950671;29;20426;-87
2022/01/11 09:17:05;;;;;;;22.07;10.37;;;-11.40;99.90;;;;;;4935048;29;20413;-86
2022/01/11 09:19:33;;;;;;;22.70;10.20;;;-11.20;99.90;;;;;;4934567;29;20410;-86
2022/01/11 09:22:01;;;;;;;22.40;10.13;;;-11.20;99.90;;;;;;4934423;29;20458;-86
2022/01/11 09:24:36;;;;;;;19.40;9.35;;;-11.20;99.90;;;;;;4934393;29;20902;-84
2022/01/11 09:27:06;;;;;;;20.85;9.95;;;-11.20;99.90;;;;;;4933718;29;20473;-86
2022/01/11 09:29:37;;;;;;;21.30;9.70;;;-11.20;99.90;;;;;;4934115;29;20421;-85
2022/01/11 09:32:08;;;;;;;20.48;9.75;;;-11.20;99.90;;;;;;4927105;29;20490;-84
2022/01/11 09:34:39;;;;;;;19.17;9.55;;;-11.40;99.90;;;;;;4932372;29;20911;-84
2022/01/11 09:37:11;;;;;;;21.10;10.15;;;-11.40;99.90;;;;;;4934013;29;20402;-85
2022/01/11 09:39:41;;;;;;;20.90;9.43;;;-11.20;99.90;;;;;;4949870;29;20398;-84
2022/01/11 09:42:11;;;;;;;18.10;9.30;;;-11.10;99.90;;;;;;4949545;29;20932;-84
2022/01/11 09:44:40;;;;;;;19.48;8.82;;;-11.30;99.90;;;;;;4937437;29;20445;-84
2022/01/11 09:47:13;;;;;;;19.70;8.73;;;-11.20;99.90;;;;;;4933744;29;20892;-86
2022/01/11 09:49:44;;;;;;;20.00;8.83;;;-11.20;99.90;;;;;;4933928;29;20405;-83
2022/01/11 09:52:14;;;;;;;18.40;8.85;;;-11.10;99.90;;;;;;4933632;29;20414;-84
2022/01/11 09:54:45;;;;;;;16.73;8.13;;;-11.00;99.90;;;;;;4949746;29;20501;-84
2022/01/11 09:57:15;;;;;;;17.88;8.02;;;-11.00;99.90;;;;;;4949860;29;20413;-84
2022/01/11 09:59:43;;;;;;;18.23;8.10;;;-11.10;99.90;;;;;;4933663;29;20461;-84
2022/01/11 10:02:29;;;;;;;16.13;8.27;;;-11.20;99.90;;;;;;4941545;29;20491;-84
2022/01/11 10:05:23;;;;;;;15.15;7.60;;;-11.10;99.90;;;;;;4941250;29;20444;-86
2022/01/11 10:07:52;;;;;;;15.10;7.13;;;-11.20;99.90;;;;;;4949716;29;20398;-85
2022/01/11 10:10:25;;;;;;;17.40;7.57;;;-11.10;99.90;;;;;;4949600;29;20417;-86
2022/01/11 10:13:03;;;;;;;15.75;6.85;;;-11.00;99.90;;;;;;4933602;29;20492;-87
2022/01/11 10:15:35;;;;;;;19.50;8.20;;;-10.90;99.90;;;;;;4965422;28;20476;-87
2022/01/11 10:18:30;;;;;;;16.63;7.18;;;-10.80;99.90;;;;;;4960466;28;20439;-86
2022/01/11 10:20:58;;;;;;;14.00;5.80;;;-11.00;99.90;;;;;;4946392;29;20456;-87
2022/01/11 10:23:34;;;;;;;14.18;6.18;;;-11.10;99.90;;;;;;4930420;29;20404;-85
2022/01/11 10:26:02;;;;;;;14.50;6.15;;;-11.10;99.90;;;;;;4930073;29;20404;-85
2022/01/11 10:28:36;;;;;;;12.68;5.50;;;-11.20;99.90;;;;;;4945974;29;20406;-86
2022/01/11 10:31:06;;;;;;;10.83;5.90;;;-11.10;99.90;;;;;;4929925;29;20774;-85
2022/01/11 10:33:59;;;;;;;17.92;7.32;;;-10.80;99.90;;;;;;4946613;28;20471;-83
2022/01/11 10:36:44;;;;;;;11.55;5.93;;;-10.80;99.90;;;;;;4950641;28;20394;-86
2022/01/11 10:39:44;;;;;;;13.35;5.82;;;-10.70;99.90;;;;;;4949379;29;20541;-86
2022/01/11 10:42:30;;;;;;;12.23;6.20;;;-10.80;99.90;;;;;;4913602;29;20421;-87
2022/01/11 10:45:04;;;;;;;13.98;6.30;;;-10.70;99.90;;;;;;4933083;29;20413;-85
2022/01/11 10:47:42;;;;;;;14.10;6.70;;;-10.60;99.90;;;;;;4948978;29;20401;-85
2022/01/11 10:50:26;;;;;;;10.50;5.53;;;-10.70;99.90;;;;;;4933383;29;20433;-86
2022/01/11 10:52:56;;;;;;;16.33;7.70;;;-10.90;99.90;;;;;;4932963;29;20406;-85
2022/01/11 10:55:28;;;;;;;14.18;6.25;;;-10.70;99.90;;;;;;4925982;29;20782;-85
2022/01/11 10:58:05;;;;;;;15.15;6.93;;;-10.60;99.90;;;;;;4936207;29;20403;-86
2022/01/11 11:00:52;;;;;;;17.20;7.70;;;-10.50;99.90;;;;;;4934546;28;20518;-87
2022/01/11 11:03:32;;;;;;;15.53;6.90;;;-10.40;99.90;;;;;;4939773;28;20415;-86
2022/01/11 11:06:07;;;;;;;16.63;8.32;;;-10.30;99.90;;;;;;4921912;28;20423;-87
2022/01/11 11:08:48;;;;;;;16.42;7.97;;;-10.30;99.90;;;;;;4960267;28;20422;-86
2022/01/11 11:11:34;;;;;;;14.20;6.65;;;-10.30;99.90;;;;;;4955088;28;20422;-87
2022/01/11 11:14:17;;;;;;;15.02;6.80;;;-10.40;99.90;;;;;;4939076;28;20408;-85
2022/01/11 11:17:00;;;;;;;15.68;7.00;;;-10.50;99.90;;;;;;4941431;29;20990;-87
2022/01/11 11:19:48;;;;;;;16.40;7.70;;;-10.50;99.90;;;;;;4945933;29;20967;-87
2022/01/11 11:22:16;;;;;;;18.37;8.00;;;-10.40;99.90;;;;;;4920816;29;20402;-87
2022/01/11 11:24:43;;;;;;;15.70;7.32;;;-10.40;99.90;;;;;;4954921;29;20503;-86
2022/01/11 11:27:11;;;;;;;14.55;7.07;;;-10.40;99.90;;;;;;4956694;29;20403;-86
2022/01/11 11:29:38;;;;;;;15.47;7.63;;;-10.40;99.90;;;;;;4971517;28;20551;-85
2022/01/11 11:32:11;;;;;;;15.68;7.30;;;-10.40;99.90;;;;;;4947840;29;20413;-85
2022/01/11 11:34:40;;;;;;;15.88;7.25;;;-10.40;99.90;;;;;;4920487;29;20904;-85
2022/01/11 11:37:09;;;;;;;17.85;7.50;;;-10.40;99.90;;;;;;4935951;29;20406;-85
2022/01/11 11:39:38;;;;;;;14.20;7.30;;;-10.40;99.90;;;;;;4926072;29;20420;-85
2022/01/11 11:42:09;;;;;;;16.80;7.45;;;-10.40;99.90;;;;;;4937279;29;20937;-87
2022/01/11 11:44:40;;;;;;;15.98;6.97;;;-10.40;99.90;;;;;;4920317;29;20406;-86
2022/01/11 11:47:08;;;;;;;15.57;7.90;;;-10.40;99.90;;;;;;4938985;29;20409;-85
2022/01/11 11:49:44;;;;;;;15.70;7.17;;;-10.50;99.90;;;;;;4963297;28;20459;-84
2022/01/11 11:52:14;;;;;;;13.75;7.00;;;-10.50;99.90;;;;;;4938907;28;20406;-85
2022/01/11 11:54:55;;;;;;;14.82;6.95;;;-10.50;99.90;;;;;;4937872;28;20881;-87
2022/01/11 11:57:25;;;;;;;18.60;7.95;;;-10.50;99.90;;;;;;4955137;28;20408;-86
2022/01/11 12:00:07;;;;;;;16.65;7.50;;;-10.50;99.90;;;;;;4952633;29;20402;-85
2022/01/11 12:03:00;;;;;;;13.95;7.10;;;-10.50;99.90;;;;;;4956462;29;20495;-84
2022/01/11 12:05:33;;;;;;;14.68;6.82;;;-10.50;99.90;;;;;;4954750;29;20414;-87
2022/01/11 12:08:31;;;;;;;14.73;7.18;;;-10.50;99.90;;;;;;4954859;29;20404;-85
2022/01/11 12:11:05;;;;;;;14.98;7.07;;;-10.50;99.90;;;;;;4939237;28;20419;-85
2022/01/11 12:13:51;;;;;;;16.75;6.82;;;-10.50;99.90;;;;;;4937299;28;20487;-86
2022/01/11 12:16:25;;;;;;;14.55;7.55;;;-10.60;99.90;;;;;;4943266;28;20475;-84
2022/01/11 12:18:56;;;;;;;15.02;7.30;;;-10.60;99.90;;;;;;4938625;29;20407;-85
2022/01/11 12:21:26;;;;;;;22.00;7.07;;;-10.50;99.90;;;;;;4929264;29;20432;-84
2022/01/11 12:23:59;;;;;;;15.73;6.93;;;-10.60;99.90;;;;;;4946230;28;20460;-84
2022/01/11 12:26:30;;;;;;;13.98;6.32;;;-10.60;99.90;;;;;;4941848;28;20414;-86
2022/01/11 12:29:11;;;;;;;15.05;6.20;;;-10.60;99.90;;;;;;4949507;28;20466;-86
2022/01/11 12:31:50;;;;;;;13.80;6.35;;;-10.60;99.90;;;;;;4937985;29;20396;-85
2022/01/11 12:34:18;;;;;;;13.60;6.80;;;-10.70;99.90;;;;;;4938226;29;20423;-85
2022/01/11 12:37:00;;;;;;;13.55;6.00;;;-10.70;99.90;;;;;;4954255;29;20400;-84
2022/01/11 12:39:30;;;;;;;15.00;6.57;;;-10.60;99.90;;;;;;4955646;29;20798;-84
2022/01/11 12:41:59;;;;;;;12.35;6.05;;;-10.60;99.90;;;;;;4970360;28;20400;-84
2022/01/11 12:45:35;;;;;;;13.33;6.20;;;-10.60;99.90;;;;;;4938409;29;20421;-84
2022/01/11 12:47:38;;;;;;;13.57;6.03;;;-10.60;99.90;;;;;;4938199;29;20424;-85
2022/01/11 12:50:12;;;;;;;16.02;6.10;;;-10.70;99.90;;;;;;4955308;29;20475;-84
2022/01/11 12:52:40;;;;;;;14.25;6.40;;;-10.80;99.90;;;;;;4970167;28;20403;-84
2022/01/11 12:55:09;;;;;;;14.23;6.22;;;-10.80;99.90;;;;;;4969858;28;20420;-83